Terminal Aerodrome Forecast
Issued by NWS Shreveport, LA

Home | Current Version | Previous Version | Text Only | Print | Product List | Glossary On
Versions: 1 2 3 4 5 6 7 8 9 10 11 12 13 14 15 16 17 18 19 20 21 22 23 24
000
FTUS44 KSHV 291801 RRA
TAFELD
TAF
KELD 291801Z 2918/3018 25008KT P6SM SCT025 BKN035 BKN250
     FM292100 22007KT P6SM VCSH BKN040 BKN090
     FM300100 19005KT P6SM FEW060 SCT250
     FM300400 21003KT P6SM SCT250
     FM300900 18003KT P6SM BKN050
     FM301500 26005KT P6SM VCSH BKN035=

USA.gov is the U.S. government's official web portal to all federal, state and local government web resources and services.